TimePST,TemperatureF,Dew PointF,Humidity,Sea Level PressureIn,VisibilityMPH,Wind Direction,Wind SpeedMPH,Gust SpeedMPH,PrecipitationIn,Events,Conditions,WindDirDegrees,DateUTC
12:53 AM,46.9,15.1,28,30.10,10.0,North,3.5,-,N/A,,Clear,10,2013-01-03 08:53:00
1:53 AM,50.0,15.1,25,30.10,10.0,SW,5.8,-,N/A,,Clear,230,2013-01-03 09:53:00
2:53 AM,50.0,14.0,24,30.10,10.0,SW,5.8,-,N/A,,Clear,230,2013-01-03 10:53:00
3:53 AM,50.0,14.0,24,30.10,10.0,SW,4.6,-,N/A,,Clear,220,2013-01-03 11:53:00
4:53 AM,52.0,10.0,19,30.11,10.0,NNW,6.9,-,N/A,,Clear,340,2013-01-03 12:53:00
5:53 AM,55.9,10.9,17,30.12,10.0,WNW,9.2,-,N/A,,Clear,300,2013-01-03 13:53:00
6:53 AM,57.0,8.1,14,30.14,10.0,NW,15.0,23.0,N/A,,Clear,320,2013-01-03 14:53:00
7:53 AM,57.9,8.1,14,30.17,10.0,NW,10.4,-,N/A,,Clear,320,2013-01-03 15:53:00
8:53 AM,61.0,8.1,12,30.19,10.0,NW,9.2,-,N/A,,Clear,310,2013-01-03 16:53:00
9:53 AM,64.0,7.0,11,30.21,10.0,East,9.2,-,N/A,,Clear,80,2013-01-03 17:53:00
10:53 AM,64.9,3.9,9,30.20,10.0,NNE,10.4,-,N/A,,Clear,20,2013-01-03 18:53:00
11:53 AM,66.9,1.0,7,30.17,10.0,North,8.1,-,N/A,,Clear,10,2013-01-03 19:53:00
12:53 PM,66.9,1.0,7,30.14,10.0,West,4.6,-,N/A,,Clear,280,2013-01-03 20:53:00
1:53 PM,66.0,-0.0,7,30.13,10.0,Calm,Calm,-,N/A,,Clear,0,2013-01-03 21:53:00
2:53 PM,66.9,1.0,7,30.13,10.0,SW,4.6,-,N/A,,Clear,220,2013-01-03 22:53:00
3:53 PM,66.0,3.0,8,30.14,10.0,ESE,3.5,-,N/A,,Clear,120,2013-01-03 23:53:00
4:53 PM,62.1,10.0,13,30.15,10.0,West,3.5,-,N/A,,Clear,260,2013-01-04 00:53:00
5:53 PM,60.1,3.0,10,30.17,10.0,West,3.5,-,N/A,,Clear,270,2013-01-04 01:53:00
6:53 PM,57.0,5.0,12,30.19,10.0,Calm,Calm,-,N/A,,Clear,0,2013-01-04 02:53:00
7:53 PM,55.9,5.0,13,30.21,10.0,WNW,4.6,-,N/A,,Clear,300,2013-01-04 03:53:00
8:53 PM,53.1,7.0,16,30.21,10.0,WNW,4.6,-,N/A,,Clear,300,2013-01-04 04:53:00
9:53 PM,51.1,7.0,17,30.22,10.0,WNW,3.5,-,N/A,,Clear,290,2013-01-04 05:53:00
10:53 PM,50.0,8.1,18,30.23,10.0,West,5.8,-,N/A,,Clear,260,2013-01-04 06:53:00
11:53 PM,48.9,8.1,19,30.23,10.0,NW,4.6,-,N/A,,Clear,320,2013-01-04 07:53:00